createdAt,value
2022-08-16T00:01:40.667Z,16.50
2022-08-16T00:04:38.054Z,16.40
2022-08-16T00:07:34.938Z,16.60
2022-08-16T00:10:35.819Z,16.70
2022-08-16T00:13:41.695Z,16.60
2022-08-16T00:17:06.215Z,16.60
2022-08-16T00:19:56.469Z,16.40
2022-08-16T00:22:54.172Z,16.20
2022-08-16T00:26:34.885Z,16.20
2022-08-16T00:29:08.247Z,16.10
2022-08-16T00:32:18.094Z,16.10
2022-08-16T00:35:25.270Z,16.10
2022-08-16T00:38:41.111Z,16.10
2022-08-16T00:41:39.324Z,16.20
2022-08-16T00:44:44.005Z,16.30
2022-08-16T00:47:48.928Z,16.30
2022-08-16T00:50:47.091Z,16.30
2022-08-16T00:53:53.802Z,16.30
2022-08-16T00:56:58.395Z,16.30
2022-08-16T00:59:59.552Z,15.90
2022-08-16T01:03:01.042Z,15.90
2022-08-16T01:05:59.442Z,15.80
2022-08-16T01:09:00.136Z,15.90
2022-08-16T01:11:57.206Z,15.90
2022-08-16T01:14:58.675Z,15.80
2022-08-16T01:17:56.359Z,15.90
2022-08-16T01:21:16.185Z,15.90
2022-08-16T01:24:53.377Z,15.90
2022-08-16T01:27:52.298Z,15.90
2022-08-16T01:30:55.287Z,16.00
2022-08-16T01:33:52.493Z,15.80
2022-08-16T01:36:58.243Z,15.70
2022-08-16T01:39:55.394Z,15.90
2022-08-16T01:42:54.039Z,15.70
2022-08-16T01:45:57.858Z,15.60
2022-08-16T01:49:06.147Z,15.60
2022-08-16T01:52:28.154Z,15.50
2022-08-16T01:55:26.995Z,15.40
2022-08-16T01:58:32.720Z,15.60
2022-08-16T02:01:31.968Z,15.40
2022-08-16T02:04:49.709Z,15.30
2022-08-16T02:07:48.023Z,15.20
2022-08-16T02:10:49.082Z,15.20
2022-08-16T02:13:46.595Z,15.30
2022-08-16T02:16:51.765Z,15.10
2022-08-16T02:20:00.222Z,15.10
2022-08-16T02:23:00.062Z,15.10
2022-08-16T02:25:59.559Z,15.30
2022-08-16T02:28:56.950Z,15.20
2022-08-16T02:32:03.083Z,15.10
2022-08-16T02:35:01.071Z,15.30
2022-08-16T02:38:08.620Z,15.20
2022-08-16T02:41:09.748Z,15.20
2022-08-16T02:44:11.324Z,15.30
2022-08-16T02:47:10.898Z,15.30
2022-08-16T02:50:54.375Z,15.10
2022-08-16T02:53:44.769Z,15.10
2022-08-16T02:56:42.746Z,15.00
2022-08-16T02:59:44.970Z,15.00
2022-08-16T03:02:44.607Z,14.90
2022-08-16T03:05:42.239Z,14.90
2022-08-16T03:08:50.282Z,14.90
2022-08-16T03:11:48.340Z,14.90
2022-08-16T03:14:47.971Z,15.00
2022-08-16T03:17:53.055Z,14.90
2022-08-16T03:20:55.763Z,14.60
2022-08-16T03:23:52.951Z,14.60
2022-08-16T03:26:50.672Z,14.60
2022-08-16T03:29:54.131Z,14.50
2022-08-16T03:32:52.273Z,14.50
2022-08-16T03:35:57.159Z,14.60
2022-08-16T03:38:54.263Z,14.50
2022-08-16T03:41:59.946Z,14.50
2022-08-16T03:45:03.876Z,14.50
2022-08-16T03:48:07.199Z,14.50
2022-08-16T03:51:12.953Z,14.50
2022-08-16T03:54:12.388Z,14.50
2022-08-16T03:57:11.499Z,14.70
2022-08-16T04:00:35.519Z,14.70
2022-08-16T04:03:35.281Z,14.60
2022-08-16T04:06:33.315Z,14.60
2022-08-16T04:09:35.479Z,14.40
2022-08-16T04:12:53.171Z,14.40
2022-08-16T04:15:50.161Z,14.40
2022-08-16T04:18:49.769Z,14.50
2022-08-16T04:21:47.471Z,14.40
2022-08-16T04:24:54.370Z,14.70
2022-08-16T04:27:55.786Z,14.70
2022-08-16T04:30:53.913Z,14.70
2022-08-16T04:33:51.568Z,14.70
2022-08-16T04:36:49.300Z,14.60
2022-08-16T04:39:55.268Z,14.60
2022-08-16T04:42:53.428Z,14.50
2022-08-16T04:46:00.023Z,14.60
2022-08-16T04:48:57.464Z,14.50
2022-08-16T04:51:55.404Z,14.60
2022-08-16T04:54:52.402Z,14.50
2022-08-16T04:57:53.458Z,14.50
2022-08-16T05:00:50.784Z,14.50
2022-08-16T05:04:00.454Z,14.50
2022-08-16T05:06:58.089Z,14.60
2022-08-16T05:09:54.923Z,14.60
2022-08-16T05:12:52.211Z,14.70
2022-08-16T05:15:49.800Z,14.70
2022-08-16T05:18:48.660Z,14.70
2022-08-16T05:21:45.501Z,14.60
2022-08-16T05:24:43.847Z,14.50
2022-08-16T05:27:43.282Z,14.70
2022-08-16T05:30:40.439Z,14.90
2022-08-16T05:33:42.231Z,15.00
2022-08-16T05:36:39.854Z,15.00
2022-08-16T05:39:41.160Z,15.10
2022-08-16T05:42:38.467Z,15.10
2022-08-16T05:45:36.533Z,15.10
2022-08-16T05:48:33.610Z,15.30
2022-08-16T05:51:38.542Z,15.30
2022-08-16T05:54:36.900Z,15.40
2022-08-16T05:57:41.951Z,15.50
2022-08-16T06:00:39.901Z,15.60
2022-08-16T06:03:37.771Z,15.70
2022-08-16T06:06:34.891Z,15.80
2022-08-16T06:09:44.558Z,15.80
2022-08-16T06:12:41.973Z,15.80
2022-08-16T06:15:41.542Z,15.90
2022-08-16T06:18:38.634Z,16.00
2022-08-16T06:21:36.652Z,16.10
2022-08-16T06:24:54.243Z,16.20
2022-08-16T06:27:57.150Z,16.30
2022-08-16T06:30:54.592Z,16.40
2022-08-16T06:33:51.834Z,16.50
2022-08-16T06:36:51.011Z,16.60
2022-08-16T06:39:56.321Z,16.60
2022-08-16T06:42:57.294Z,16.70
2022-08-16T06:45:54.747Z,16.80
2022-08-16T06:48:51.857Z,16.90
2022-08-16T06:51:49.332Z,17.20
2022-08-16T06:54:46.340Z,17.40
2022-08-16T06:57:46.820Z,17.60
2022-08-16T07:00:44.486Z,17.70
2022-08-16T07:03:55.526Z,17.80
2022-08-16T07:06:54.646Z,17.90
2022-08-16T07:09:51.560Z,18.00
2022-08-16T07:13:04.004Z,18.00
2022-08-16T07:16:14.437Z,18.00
2022-08-16T07:19:12.425Z,18.30
2022-08-16T07:22:38.597Z,18.30
2022-08-16T07:25:27.302Z,18.40
2022-08-16T07:28:24.729Z,18.60
2022-08-16T07:31:21.884Z,18.60
2022-08-16T07:34:19.606Z,18.70
2022-08-16T07:37:32.207Z,18.80
2022-08-16T07:40:49.585Z,18.90
2022-08-16T07:43:47.510Z,19.00
2022-08-16T07:46:44.644Z,19.10
2022-08-16T07:49:53.184Z,19.10
2022-08-16T07:52:55.117Z,19.20
2022-08-16T07:55:52.861Z,19.40
2022-08-16T07:58:49.964Z,19.50
2022-08-16T08:01:53.983Z,19.70
2022-08-16T08:04:53.100Z,19.80
2022-08-16T08:07:52.974Z,19.90
2022-08-16T08:10:54.588Z,19.90
2022-08-16T08:13:53.960Z,19.90
2022-08-16T08:16:50.875Z,19.90
2022-08-16T08:19:53.317Z,20.00
2022-08-16T08:22:51.404Z,20.10
2022-08-16T08:25:55.190Z,20.30
2022-08-16T08:28:52.693Z,20.90
2022-08-16T08:31:51.458Z,21.20
2022-08-16T08:34:48.880Z,21.40
2022-08-16T08:37:54.236Z,21.60
2022-08-16T08:40:51.922Z,21.70
2022-08-16T08:43:50.371Z,21.90
2022-08-16T08:47:00.086Z,22.20
2022-08-16T08:49:58.952Z,22.20
2022-08-16T08:52:55.946Z,22.60
2022-08-16T08:55:58.813Z,22.60
2022-08-16T08:58:59.211Z,22.80
2022-08-16T09:01:59.540Z,22.90
2022-08-16T09:04:57.234Z,23.00
2022-08-16T09:08:01.754Z,23.20
2022-08-16T09:11:03.359Z,23.20
2022-08-16T09:14:05.746Z,23.20
2022-08-16T09:17:21.551Z,23.40
2022-08-16T09:20:23.397Z,23.40
2022-08-16T09:23:21.069Z,23.80
2022-08-16T09:26:45.537Z,23.90
2022-08-16T09:29:44.950Z,24.40
2022-08-16T09:32:47.015Z,24.50
2022-08-16T09:35:46.861Z,24.00
2022-08-16T09:38:51.183Z,24.40
2022-08-16T09:41:59.826Z,24.50
2022-08-16T09:45:12.533Z,24.50
2022-08-16T09:48:36.922Z,24.20
2022-08-16T09:51:36.760Z,23.90
2022-08-16T09:54:34.526Z,24.20
2022-08-16T09:57:34.576Z,24.20
2022-08-16T10:00:43.946Z,23.90
2022-08-16T10:04:02.685Z,24.20
2022-08-16T10:10:00.951Z,24.10
2022-08-16T10:13:16.163Z,23.70
2022-08-16T10:19:13.531Z,23.50
2022-08-16T10:22:17.176Z,23.70
2022-08-16T10:27:17.502Z,23.80
2022-08-16T10:28:31.909Z,24.20
2022-08-16T10:31:45.649Z,24.10
2022-08-16T10:34:43.147Z,24.30
2022-08-16T10:37:41.952Z,24.60
2022-08-16T10:40:41.080Z,25.30
2022-08-16T10:43:43.091Z,25.70
2022-08-16T10:46:42.206Z,26.10
2022-08-16T10:49:39.387Z,26.20
2022-08-16T10:55:44.112Z,26.30
2022-08-16T10:58:42.383Z,26.00
2022-08-16T11:01:43.895Z,26.50
2022-08-16T11:07:59.069Z,26.90
2022-08-16T11:11:06.767Z,27.10
2022-08-16T11:14:11.671Z,26.70
2022-08-16T11:17:11.412Z,26.90
2022-08-16T11:23:28.403Z,25.90
2022-08-16T11:26:25.932Z,26.40
2022-08-16T11:29:22.795Z,26.70
2022-08-16T11:32:31.622Z,26.60
2022-08-16T11:38:56.964Z,27.70
2022-08-16T11:41:55.303Z,27.50
2022-08-16T11:44:57.098Z,27.40
2022-08-16T11:47:55.160Z,27.90
2022-08-16T11:50:52.852Z,27.60
2022-08-16T11:53:49.824Z,27.90
2022-08-16T11:56:53.099Z,27.30
2022-08-16T11:59:54.583Z,27.10
2022-08-16T12:02:51.805Z,27.10
2022-08-16T12:05:51.927Z,27.20
2022-08-16T12:08:52.233Z,26.90
2022-08-16T12:11:52.770Z,26.90
2022-08-16T12:14:59.247Z,27.20
2022-08-16T12:17:57.342Z,26.60
2022-08-16T12:20:58.357Z,27.20
2022-08-16T12:23:56.855Z,27.90
2022-08-16T12:26:54.637Z,27.90
2022-08-16T12:29:53.757Z,27.20
2022-08-16T12:32:51.596Z,27.40
2022-08-16T12:35:50.313Z,26.50
2022-08-16T12:38:48.399Z,26.80
2022-08-16T12:41:46.268Z,27.30
2022-08-16T12:44:43.384Z,27.00
2022-08-16T12:48:22.579Z,27.10
2022-08-16T12:51:24.182Z,26.90
2022-08-16T12:54:22.197Z,26.60
2022-08-16T12:57:19.027Z,26.70
2022-08-16T13:00:26.607Z,26.30
2022-08-16T13:03:23.686Z,26.20
2022-08-16T13:06:21.644Z,26.80
2022-08-16T13:09:31.736Z,26.90
2022-08-16T13:12:42.779Z,27.30
2022-08-16T13:15:51.795Z,27.40
2022-08-16T13:18:54.526Z,28.50
2022-08-16T13:21:51.505Z,28.70
2022-08-16T13:24:50.551Z,29.10
2022-08-16T13:28:02.280Z,29.00
2022-08-16T13:31:03.303Z,29.00
2022-08-16T13:34:00.212Z,29.20
2022-08-16T13:36:57.039Z,29.40
2022-08-16T13:39:53.918Z,28.90
2022-08-16T13:42:53.765Z,29.80
2022-08-16T13:45:51.608Z,29.20
2022-08-16T13:48:52.259Z,28.50
2022-08-16T13:51:49.702Z,28.40
2022-08-16T13:54:46.556Z,27.80
2022-08-16T13:57:53.166Z,27.20
2022-08-16T14:00:52.782Z,26.90
2022-08-16T14:03:50.421Z,26.90
2022-08-16T14:06:51.575Z,26.90
2022-08-16T14:09:50.368Z,27.50
2022-08-16T14:12:52.084Z,28.50
2022-08-16T14:15:49.428Z,28.60
2022-08-16T14:18:46.975Z,28.80
2022-08-16T14:22:02.293Z,29.10
2022-08-16T14:25:10.304Z,28.90
2022-08-16T14:28:09.667Z,29.10
2022-08-16T14:31:06.739Z,28.40
2022-08-16T14:34:07.177Z,28.00
2022-08-16T14:37:08.180Z,28.50
2022-08-16T14:40:08.605Z,28.80
2022-08-16T14:43:07.646Z,29.00
2022-08-16T14:46:07.399Z,28.20
2022-08-16T14:49:04.568Z,28.00
2022-08-16T14:52:13.639Z,28.00
2022-08-16T14:55:12.161Z,28.10
2022-08-16T14:58:18.789Z,28.10
2022-08-16T15:01:17.153Z,27.60
2022-08-16T15:04:37.826Z,27.50
2022-08-16T15:07:35.022Z,27.40
2022-08-16T15:10:32.769Z,27.40
2022-08-16T15:13:29.647Z,27.60
2022-08-16T15:16:29.101Z,27.30
2022-08-16T15:19:26.205Z,27.70
2022-08-16T15:22:39.042Z,28.00
2022-08-16T15:25:42.903Z,27.90
2022-08-16T15:28:40.629Z,27.60
2022-08-16T15:31:41.409Z,28.00
2022-08-16T15:34:44.637Z,28.60
2022-08-16T15:37:42.728Z,28.30
2022-08-16T15:40:57.528Z,28.00
2022-08-16T15:44:05.202Z,28.80
2022-08-16T15:47:14.620Z,28.40
2022-08-16T15:50:12.342Z,28.50
2022-08-16T15:53:17.343Z,28.30
2022-08-16T15:56:14.605Z,28.10
2022-08-16T15:59:12.464Z,27.90
2022-08-16T16:02:10.892Z,28.20
2022-08-16T16:05:11.787Z,27.70
2022-08-16T16:08:11.454Z,27.50
2022-08-16T16:11:09.806Z,27.50
2022-08-16T16:14:07.451Z,27.80
2022-08-16T16:17:06.199Z,27.70
2022-08-16T16:20:05.358Z,27.80
2022-08-16T16:23:14.941Z,28.20
2022-08-16T16:26:15.285Z,28.10
2022-08-16T16:29:15.594Z,28.40
2022-08-16T16:32:12.965Z,28.50
2022-08-16T16:35:13.050Z,28.20
2022-08-16T16:38:10.117Z,28.00
2022-08-16T16:41:11.416Z,28.40
2022-08-16T16:44:09.118Z,28.20
2022-08-16T16:47:07.067Z,27.50
2022-08-16T16:50:05.829Z,27.60
2022-08-16T16:53:17.265Z,27.50
2022-08-16T16:56:20.019Z,27.00
2022-08-16T16:59:25.450Z,27.10
2022-08-16T17:02:41.304Z,27.00
2022-08-16T17:05:42.062Z,26.80
2022-08-16T17:08:51.941Z,26.20
2022-08-16T17:11:55.193Z,26.00
2022-08-16T17:14:55.510Z,25.80
2022-08-16T17:17:59.998Z,25.70
2022-08-16T17:20:58.712Z,25.50
2022-08-16T17:23:58.954Z,25.30
2022-08-16T17:27:18.136Z,25.20
2022-08-16T17:30:20.446Z,24.90
2022-08-16T17:33:26.443Z,24.70
2022-08-16T17:36:36.289Z,24.90
2022-08-16T17:39:59.527Z,24.70
2022-08-16T17:42:55.199Z,24.60
2022-08-16T17:45:52.062Z,24.60
2022-08-16T17:48:50.009Z,24.60
2022-08-16T17:51:47.531Z,24.90
2022-08-16T17:54:45.094Z,24.40
2022-08-16T17:57:42.014Z,24.30
2022-08-16T18:00:40.829Z,24.00
2022-08-16T18:04:07.556Z,24.30
2022-08-16T18:06:59.699Z,23.90
2022-08-16T18:09:56.650Z,24.00
2022-08-16T18:12:56.001Z,23.80
2022-08-16T18:15:53.211Z,23.40
2022-08-16T18:18:50.452Z,23.20
2022-08-16T18:22:05.673Z,23.10
2022-08-16T18:25:05.428Z,23.00
2022-08-16T18:28:03.237Z,23.10
2022-08-16T18:31:01.197Z,23.10
2022-08-16T18:34:02.651Z,23.00
2022-08-16T18:37:00.248Z,22.70
2022-08-16T18:39:58.152Z,22.60
2022-08-16T18:43:06.253Z,22.90
2022-08-16T18:46:03.217Z,22.50
2022-08-16T18:49:00.101Z,22.30
2022-08-16T18:51:59.499Z,22.30
2022-08-16T18:55:02.043Z,22.30
2022-08-16T18:58:01.628Z,22.10
2022-08-16T19:00:58.479Z,21.90
2022-08-16T19:04:00.178Z,22.00
2022-08-16T19:06:57.140Z,22.00
2022-08-16T19:09:53.983Z,21.70
2022-08-16T19:12:51.304Z,21.60
2022-08-16T19:15:51.670Z,21.40
2022-08-16T19:18:48.936Z,21.30
2022-08-16T19:21:45.770Z,21.10
2022-08-16T19:24:44.139Z,21.00
2022-08-16T19:27:42.637Z,21.00
2022-08-16T19:30:40.476Z,20.90
2022-08-16T19:33:37.906Z,20.80
2022-08-16T19:36:38.195Z,20.70
2022-08-16T19:39:36.551Z,20.60
2022-08-16T19:42:33.538Z,20.60
2022-08-16T19:45:30.626Z,20.50
2022-08-16T19:48:27.556Z,20.30
2022-08-16T19:51:24.375Z,20.40
2022-08-16T19:54:21.213Z,20.30
2022-08-16T19:57:19.733Z,20.20
2022-08-16T20:00:18.932Z,20.20
2022-08-16T20:03:21.256Z,20.20
2022-08-16T20:06:38.594Z,20.10
2022-08-16T20:09:35.095Z,20.10
2022-08-16T20:12:32.097Z,20.00
2022-08-16T20:15:31.669Z,19.90
2022-08-16T20:18:28.645Z,20.00
2022-08-16T20:21:25.605Z,19.90
2022-08-16T20:24:34.119Z,19.90
2022-08-16T20:27:32.597Z,19.70
2022-08-16T20:30:29.791Z,19.70
2022-08-16T20:33:26.635Z,19.70
2022-08-16T20:36:24.478Z,19.70
2022-08-16T20:39:23.366Z,19.70
2022-08-16T20:42:27.055Z,19.60
2022-08-16T20:45:26.969Z,19.50
2022-08-16T20:48:24.561Z,19.60
2022-08-16T20:51:21.391Z,19.50
2022-08-16T20:54:18.690Z,19.40
2022-08-16T20:57:16.546Z,19.30
2022-08-16T21:00:14.713Z,19.20
2022-08-16T21:03:13.066Z,19.10
2022-08-16T21:06:09.962Z,19.10
2022-08-16T21:09:07.396Z,19.10
2022-08-16T21:12:11.398Z,19.10
2022-08-16T21:15:11.229Z,19.00
2022-08-16T21:18:10.086Z,19.00
2022-08-16T21:21:06.963Z,18.90
2022-08-16T21:24:04.212Z,18.90
2022-08-16T21:27:02.737Z,18.80
2022-08-16T21:30:00.374Z,18.80
2022-08-16T21:33:07.618Z,18.70
2022-08-16T21:36:04.999Z,18.60
2022-08-16T21:39:01.843Z,18.60
2022-08-16T21:41:59.081Z,18.40
2022-08-16T21:44:55.980Z,18.40
2022-08-16T21:47:52.830Z,18.50
2022-08-16T21:50:49.652Z,18.50
2022-08-16T21:53:46.548Z,18.50
2022-08-16T21:56:43.389Z,18.40
2022-08-16T21:59:40.220Z,18.40
2022-08-16T22:02:38.803Z,18.40
2022-08-16T22:05:38.434Z,18.40
2022-08-16T22:08:39.554Z,18.20
2022-08-16T22:11:46.877Z,18.00
2022-08-16T22:14:43.714Z,18.00
2022-08-16T22:17:41.793Z,18.00
2022-08-16T22:20:41.257Z,17.90
2022-08-16T22:23:38.359Z,17.90
2022-08-16T22:26:42.767Z,17.90
2022-08-16T22:29:42.328Z,17.80
2022-08-16T22:32:44.727Z,17.80
2022-08-16T22:35:52.824Z,17.80
2022-08-16T22:38:56.640Z,17.70
2022-08-16T22:41:54.824Z,17.90
2022-08-16T22:44:52.494Z,17.90
2022-08-16T22:47:50.153Z,17.90
2022-08-16T22:50:47.165Z,17.60
2022-08-16T22:53:44.117Z,17.40
2022-08-16T22:56:40.970Z,17.40
2022-08-16T22:59:37.806Z,17.40
2022-08-16T23:02:34.653Z,17.40
2022-08-16T23:05:42.196Z,17.30
2022-08-16T23:08:41.685Z,17.20
2022-08-16T23:11:38.572Z,17.30
2022-08-16T23:14:35.477Z,17.30
2022-08-16T23:17:32.309Z,17.40
2022-08-16T23:20:29.603Z,17.30
2022-08-16T23:23:27.844Z,17.20
2022-08-16T23:26:46.488Z,17.20
2022-08-16T23:29:41.638Z,17.20
2022-08-16T23:32:54.452Z,17.20
2022-08-16T23:35:56.098Z,17.20
2022-08-16T23:38:52.975Z,17.20
2022-08-16T23:41:49.801Z,16.90
2022-08-16T23:44:58.929Z,17.00
2022-08-16T23:47:57.064Z,16.90
2022-08-16T23:50:56.255Z,16.90
2022-08-16T23:53:55.610Z,16.80
2022-08-16T23:56:52.518Z,16.80
2022-08-16T23:59:52.449Z,16.80
